createdAt,value
2023-01-11T00:00:59.867Z,100.00
2023-01-11T00:04:02.548Z,100.00
2023-01-11T00:07:04.929Z,100.00
2023-01-11T00:10:08.296Z,100.00
2023-01-11T00:13:10.611Z,100.00
2023-01-11T00:16:13.367Z,100.00
2023-01-11T00:19:15.604Z,100.00
2023-01-11T00:22:20.385Z,100.00
2023-01-11T00:25:22.984Z,100.00
2023-01-11T00:28:25.665Z,100.00
2023-01-11T00:31:28.019Z,100.00
2023-01-11T00:34:30.610Z,100.00
2023-01-11T00:37:32.890Z,100.00
2023-01-11T00:40:36.812Z,100.00
2023-01-11T00:43:57.689Z,100.00
2023-01-11T00:47:18.993Z,100.00
2023-01-11T00:50:21.297Z,100.00
2023-01-11T00:53:23.815Z,100.00
2023-01-11T00:56:26.268Z,100.00
2023-01-11T00:59:29.094Z,100.00
2023-01-11T01:02:34.521Z,100.00
2023-01-11T01:05:38.147Z,100.00
2023-01-11T01:08:40.417Z,100.00
2023-01-11T01:11:43.147Z,100.00
2023-01-11T01:14:46.986Z,100.00
2023-01-11T01:17:52.194Z,100.00
2023-01-11T01:20:54.611Z,100.00
2023-01-11T01:23:57.216Z,100.00
2023-01-11T01:26:59.789Z,100.00
2023-01-11T01:30:02.449Z,100.00
2023-01-11T01:33:05.503Z,100.00
2023-01-11T01:36:08.282Z,100.00
2023-01-11T01:39:11.304Z,100.00
2023-01-11T01:42:18.038Z,100.00
2023-01-11T01:45:38.947Z,100.00
2023-01-11T01:48:43.598Z,100.00
2023-01-11T01:51:49.885Z,100.00
2023-01-11T01:54:52.619Z,100.00
2023-01-11T01:57:57.137Z,100.00
2023-01-11T02:01:22.461Z,100.00
2023-01-11T02:04:31.161Z,100.00
2023-01-11T02:07:35.342Z,100.00
2023-01-11T02:10:37.898Z,100.00
2023-01-11T02:13:46.112Z,100.00
2023-01-11T02:16:49.009Z,100.00
2023-01-11T02:19:51.895Z,100.00
2023-01-11T02:23:12.740Z,100.00
2023-01-11T02:26:15.351Z,100.00
2023-01-11T02:29:37.903Z,100.00
2023-01-11T02:32:43.477Z,100.00
2023-01-11T02:35:57.644Z,100.00
2023-01-11T02:39:09.962Z,100.00
2023-01-11T02:42:36.906Z,100.00
2023-01-11T02:45:50.538Z,100.00
2023-01-11T02:49:05.126Z,100.00
2023-01-11T02:52:30.913Z,100.00
2023-01-11T02:55:37.151Z,100.00
2023-01-11T02:58:41.932Z,100.00
2023-01-11T03:01:46.051Z,100.00
2023-01-11T03:04:48.988Z,100.00
2023-01-11T03:08:02.200Z,100.00
2023-01-11T03:11:10.093Z,100.00
2023-01-11T03:14:12.365Z,100.00
2023-01-11T03:17:17.820Z,100.00
2023-01-11T03:20:22.983Z,100.00
2023-01-11T03:23:39.105Z,100.00
2023-01-11T03:26:49.175Z,100.00
2023-01-11T03:29:54.525Z,100.00
2023-01-11T03:33:06.923Z,100.00
2023-01-11T03:36:24.623Z,100.00
2023-01-11T03:39:29.727Z,100.00
2023-01-11T03:42:34.084Z,100.00
2023-01-11T03:45:40.071Z,100.00
2023-01-11T03:48:49.084Z,100.00
2023-01-11T03:51:53.671Z,100.00
2023-01-11T03:54:56.448Z,100.00
2023-01-11T03:57:59.921Z,100.00
2023-01-11T04:01:03.279Z,100.00
2023-01-11T04:04:06.268Z,100.00
2023-01-11T04:07:08.620Z,100.00
2023-01-11T04:10:11.482Z,100.00
2023-01-11T04:13:13.743Z,100.00
2023-01-11T04:16:16.364Z,100.00
2023-01-11T04:19:18.912Z,100.00
2023-01-11T04:22:21.728Z,100.00
2023-01-11T04:25:24.000Z,100.00
2023-01-11T04:28:26.534Z,100.00
2023-01-11T04:31:28.969Z,100.00
2023-01-11T04:34:31.585Z,100.00
2023-01-11T04:37:33.911Z,100.00
2023-01-11T04:40:36.597Z,100.00
2023-01-11T04:43:39.118Z,100.00
2023-01-11T04:46:41.746Z,100.00
2023-01-11T04:49:44.289Z,100.00
2023-01-11T04:52:46.930Z,100.00
2023-01-11T04:55:49.486Z,100.00
2023-01-11T04:58:52.117Z,100.00
2023-01-11T05:01:54.616Z,100.00
2023-01-11T05:04:57.253Z,100.00
2023-01-11T05:07:59.573Z,100.00
2023-01-11T05:11:03.613Z,100.00
2023-01-11T05:14:06.039Z,100.00
2023-01-11T05:17:13.013Z,100.00
2023-01-11T05:20:15.498Z,100.00
2023-01-11T05:23:18.200Z,100.00
2023-01-11T05:26:25.081Z,100.00
2023-01-11T05:29:28.698Z,100.00
2023-01-11T05:32:31.216Z,100.00
2023-01-11T05:35:33.832Z,100.00
2023-01-11T05:38:36.420Z,100.00
2023-01-11T05:41:39.247Z,100.00
2023-01-11T05:45:00.283Z,100.00
2023-01-11T05:48:03.064Z,100.00
2023-01-11T05:51:05.573Z,100.00
2023-01-11T05:54:10.456Z,100.00
2023-01-11T05:57:12.764Z,100.00
2023-01-11T06:00:15.584Z,100.00
2023-01-11T06:03:18.516Z,100.00
2023-01-11T06:06:21.522Z,100.00
2023-01-11T06:09:25.059Z,100.00
2023-01-11T06:12:28.205Z,100.00
2023-01-11T06:15:30.776Z,100.00
2023-01-11T06:18:34.573Z,100.00
2023-01-11T06:21:37.223Z,100.00
2023-01-11T06:24:39.513Z,100.00
2023-01-11T06:27:42.199Z,100.00
2023-01-11T06:30:44.622Z,100.00
2023-01-11T06:33:47.620Z,100.00
2023-01-11T06:36:49.980Z,100.00
2023-01-11T06:39:52.676Z,100.00
2023-01-11T06:42:55.244Z,100.00
2023-01-11T06:45:58.941Z,100.00
2023-01-11T06:49:01.994Z,100.00
2023-01-11T06:52:04.639Z,100.00
2023-01-11T06:55:07.194Z,100.00
2023-01-11T06:58:10.020Z,100.00
2023-01-11T07:01:12.558Z,100.00
2023-01-11T07:04:15.867Z,100.00
2023-01-11T07:07:18.952Z,100.00
2023-01-11T07:10:21.956Z,100.00
2023-01-11T07:13:24.353Z,100.00
2023-01-11T07:16:27.051Z,100.00
2023-01-11T07:19:29.356Z,100.00
2023-01-11T07:22:35.783Z,100.00
2023-01-11T07:25:38.508Z,100.00
2023-01-11T07:28:41.076Z,100.00
2023-01-11T07:31:43.465Z,100.00
2023-01-11T07:34:46.223Z,100.00
2023-01-11T07:37:48.652Z,100.00
2023-01-11T07:40:51.471Z,100.00
2023-01-11T07:43:53.880Z,100.00
2023-01-11T07:46:56.508Z,100.00
2023-01-11T07:49:58.973Z,100.00
2023-01-11T07:53:01.714Z,100.00
2023-01-11T07:56:04.235Z,100.00
2023-01-11T07:59:06.893Z,100.00
2023-01-11T08:02:10.762Z,100.00
2023-01-11T08:05:13.398Z,100.00
2023-01-11T08:08:15.923Z,100.00
2023-01-11T08:11:36.910Z,100.00
2023-01-11T08:14:39.236Z,100.00
2023-01-11T08:17:41.890Z,100.00
2023-01-11T08:20:45.600Z,100.00
2023-01-11T08:23:48.218Z,100.00
2023-01-11T08:26:50.622Z,100.00
2023-01-11T08:29:53.518Z,100.00
2023-01-11T08:32:57.503Z,100.00
2023-01-11T08:36:05.003Z,100.00
2023-01-11T08:39:07.476Z,100.00
2023-01-11T08:42:10.190Z,100.00
2023-01-11T08:45:12.487Z,100.00
2023-01-11T08:48:16.081Z,100.00
2023-01-11T08:51:18.434Z,100.00
2023-01-11T08:54:21.145Z,100.00
2023-01-11T08:57:23.492Z,100.00
2023-01-11T09:00:26.165Z,100.00
2023-01-11T09:03:29.526Z,100.00
2023-01-11T09:06:32.200Z,100.00
2023-01-11T09:09:34.843Z,100.00
2023-01-11T09:12:37.544Z,100.00
2023-01-11T09:15:39.851Z,100.00
2023-01-11T09:18:42.540Z,100.00
2023-01-11T09:21:46.331Z,100.00
2023-01-11T09:24:49.178Z,100.00
2023-01-11T09:27:51.874Z,100.00
2023-01-11T09:30:54.535Z,100.00
2023-01-11T09:33:56.972Z,100.00
2023-01-11T09:37:02.607Z,100.00
2023-01-11T09:40:05.565Z,100.00
2023-01-11T09:43:16.172Z,100.00
2023-01-11T09:46:19.049Z,100.00
2023-01-11T09:49:28.166Z,100.00
2023-01-11T09:52:38.325Z,100.00
2023-01-11T09:55:43.147Z,100.00
2023-01-11T09:58:59.904Z,100.00
2023-01-11T10:02:10.215Z,100.00
2023-01-11T10:05:32.179Z,100.00
2023-01-11T10:18:30.327Z,100.00
2023-01-11T10:19:41.386Z,99.40
2023-01-11T10:22:47.112Z,98.07
2023-01-11T10:25:54.935Z,98.79
2023-01-11T10:29:21.902Z,99.46
2023-01-11T10:32:34.730Z,100.00
2023-01-11T10:35:45.780Z,97.85
2023-01-11T10:38:55.016Z,95.80
2023-01-11T10:42:28.153Z,93.95
2023-01-11T10:45:37.396Z,92.79
2023-01-11T10:48:42.294Z,95.02
2023-01-11T10:51:46.862Z,96.47
2023-01-11T10:54:54.699Z,94.08
2023-01-11T10:58:10.319Z,91.65
2023-01-11T11:01:40.719Z,94.02
2023-01-11T11:04:46.451Z,93.94
2023-01-11T11:07:51.874Z,93.80
2023-01-11T11:10:54.919Z,93.78
2023-01-11T11:14:00.334Z,95.03
2023-01-11T11:17:10.035Z,94.87
2023-01-11T11:20:23.781Z,95.69
2023-01-11T11:23:28.797Z,95.72
2023-01-11T11:26:38.248Z,95.87
2023-01-11T11:29:42.582Z,95.07
2023-01-11T11:32:52.449Z,94.76
2023-01-11T11:36:00.157Z,91.01
2023-01-11T11:39:18.811Z,90.91
2023-01-11T11:42:22.238Z,90.59
2023-01-11T11:45:26.425Z,90.58
2023-01-11T11:48:34.004Z,89.98
2023-01-11T11:51:36.580Z,90.20
2023-01-11T11:54:41.857Z,89.26
2023-01-11T11:57:44.399Z,89.99
2023-01-11T12:00:49.026Z,88.86
2023-01-11T12:03:54.705Z,87.73
2023-01-11T12:07:06.204Z,86.61
2023-01-11T12:10:14.910Z,86.90
2023-01-11T12:13:27.929Z,84.71
2023-01-11T12:16:33.978Z,85.19
2023-01-11T12:19:45.841Z,82.20
2023-01-11T12:22:49.252Z,81.16
2023-01-11T12:25:51.647Z,81.93
2023-01-11T12:29:03.097Z,81.22
2023-01-11T12:32:26.529Z,81.79
2023-01-11T12:35:32.181Z,81.24
2023-01-11T12:38:51.151Z,82.42
2023-01-11T12:41:56.874Z,80.06
2023-01-11T12:45:08.427Z,80.15
2023-01-11T12:48:23.458Z,79.08
2023-01-11T12:51:41.526Z,80.44
2023-01-11T12:55:07.016Z,80.04
2023-01-11T12:58:15.688Z,79.64
2023-01-11T13:01:37.757Z,79.70
2023-01-11T13:05:00.068Z,77.87
2023-01-11T13:08:11.691Z,77.10
2023-01-11T13:11:40.351Z,77.59
2023-01-11T13:14:43.141Z,78.06
2023-01-11T13:17:53.979Z,78.98
2023-01-11T13:21:02.488Z,79.30
2023-01-11T13:24:09.675Z,78.90
2023-01-11T13:27:16.606Z,78.06
2023-01-11T13:30:20.187Z,77.61
2023-01-11T13:33:24.248Z,76.79
2023-01-11T13:36:31.348Z,79.12
2023-01-11T13:39:34.019Z,81.52
2023-01-11T13:42:45.402Z,82.02
2023-01-11T13:45:53.265Z,81.96
2023-01-11T13:48:58.155Z,82.09
2023-01-11T13:52:07.843Z,83.20
2023-01-11T13:55:20.825Z,83.70
2023-01-11T13:58:31.347Z,83.24
2023-01-11T14:01:46.664Z,83.94
2023-01-11T14:04:49.297Z,85.64
2023-01-11T14:08:01.064Z,86.49
2023-01-11T14:11:22.869Z,87.07
2023-01-11T14:14:34.490Z,88.20
2023-01-11T14:17:49.215Z,87.78
2023-01-11T14:20:57.629Z,88.01
2023-01-11T14:24:01.426Z,88.33
2023-01-11T14:27:11.495Z,88.44
2023-01-11T14:30:26.331Z,90.20
2023-01-11T14:33:29.057Z,89.98
2023-01-11T14:36:56.840Z,91.05
2023-01-11T14:40:21.510Z,92.26
2023-01-11T14:43:39.622Z,92.56
2023-01-11T14:46:50.885Z,93.13
2023-01-11T14:50:12.217Z,93.75
2023-01-11T14:53:18.344Z,94.65
2023-01-11T14:56:40.171Z,94.89
2023-01-11T14:59:43.162Z,95.93
2023-01-11T15:02:47.314Z,97.19
2023-01-11T15:05:52.675Z,98.35
2023-01-11T15:08:55.562Z,98.18
2023-01-11T15:12:10.713Z,99.87
2023-01-11T15:15:17.007Z,100.00
2023-01-11T15:18:24.552Z,100.00
2023-01-11T15:21:27.644Z,100.00
2023-01-11T15:24:31.725Z,100.00
2023-01-11T15:27:36.311Z,100.00
2023-01-11T15:30:39.311Z,100.00
2023-01-11T15:33:46.383Z,100.00
2023-01-11T15:36:54.864Z,100.00
2023-01-11T15:39:58.994Z,100.00
2023-01-11T15:43:16.694Z,100.00
2023-01-11T15:46:50.227Z,100.00
2023-01-11T15:50:15.584Z,100.00
2023-01-11T15:53:30.473Z,100.00
2023-01-11T15:57:08.235Z,100.00
2023-01-11T16:00:30.209Z,100.00
2023-01-11T16:03:44.971Z,100.00
2023-01-11T16:06:52.972Z,100.00
2023-01-11T16:10:01.794Z,100.00
2023-01-11T16:13:15.971Z,100.00
2023-01-11T16:16:18.984Z,100.00
2023-01-11T16:19:23.433Z,100.00
2023-01-11T16:22:27.525Z,100.00
2023-01-11T16:25:31.462Z,100.00
2023-01-11T16:28:34.138Z,100.00
2023-01-11T16:32:06.116Z,100.00
2023-01-11T16:35:23.570Z,100.00
2023-01-11T16:38:27.639Z,100.00
2023-01-11T16:41:51.178Z,100.00
2023-01-11T16:45:00.753Z,100.00
2023-01-11T16:48:05.096Z,100.00
2023-01-11T16:51:07.460Z,100.00
2023-01-11T16:54:14.669Z,100.00
2023-01-11T16:57:17.108Z,100.00
2023-01-11T17:00:23.446Z,100.00
2023-01-11T17:03:27.347Z,100.00
2023-01-11T17:06:34.446Z,100.00
2023-01-11T17:09:36.842Z,100.00
2023-01-11T17:12:42.895Z,100.00
2023-01-11T17:15:53.785Z,100.00
2023-01-11T17:19:07.384Z,100.00
2023-01-11T17:22:25.077Z,100.00
2023-01-11T17:25:37.323Z,100.00
2023-01-11T17:28:48.827Z,100.00
2023-01-11T17:31:51.580Z,100.00
2023-01-11T17:34:54.300Z,100.00
2023-01-11T17:37:58.960Z,100.00
2023-01-11T17:41:22.845Z,100.00
2023-01-11T17:44:44.426Z,100.00
2023-01-11T17:47:48.306Z,100.00
2023-01-11T17:50:56.873Z,100.00
2023-01-11T17:53:59.406Z,100.00
2023-01-11T17:57:02.178Z,100.00
2023-01-11T18:00:23.337Z,100.00
2023-01-11T18:03:25.968Z,100.00
2023-01-11T18:06:41.822Z,100.00
2023-01-11T18:09:48.619Z,100.00
2023-01-11T18:12:52.228Z,100.00
2023-01-11T18:15:55.003Z,100.00
2023-01-11T18:18:57.522Z,100.00
2023-01-11T18:22:00.612Z,100.00
2023-01-11T18:25:20.440Z,100.00
2023-01-11T18:28:30.216Z,100.00
2023-01-11T18:31:32.777Z,100.00
2023-01-11T18:34:36.005Z,100.00
2023-01-11T18:37:38.326Z,100.00
2023-01-11T18:40:41.129Z,100.00
2023-01-11T18:43:43.527Z,100.00
2023-01-11T18:46:46.198Z,100.00
2023-01-11T18:49:49.533Z,100.00
2023-01-11T18:52:52.284Z,100.00
2023-01-11T18:55:54.725Z,100.00
2023-01-11T18:58:58.150Z,100.00
2023-01-11T19:02:15.992Z,100.00
2023-01-11T19:05:19.867Z,100.00
2023-01-11T19:08:22.442Z,100.00
2023-01-11T19:11:27.046Z,100.00
2023-01-11T19:14:29.903Z,100.00
2023-01-11T19:17:32.638Z,100.00
2023-01-11T19:20:36.081Z,100.00
2023-01-11T19:23:38.824Z,100.00
2023-01-11T19:26:41.317Z,100.00
2023-01-11T19:29:44.216Z,100.00
2023-01-11T19:32:51.063Z,100.00
2023-01-11T19:35:53.939Z,100.00
2023-01-11T19:38:56.423Z,100.00
2023-01-11T19:42:01.434Z,100.00
2023-01-11T19:45:04.370Z,100.00
2023-01-11T19:48:07.206Z,100.00
2023-01-11T19:51:10.692Z,100.00
2023-01-11T19:54:14.779Z,100.00
2023-01-11T19:57:20.257Z,100.00
2023-01-11T20:00:22.911Z,100.00
2023-01-11T20:03:26.045Z,100.00
2023-01-11T20:06:28.481Z,100.00
2023-01-11T20:09:31.925Z,100.00
2023-01-11T20:12:34.358Z,100.00
2023-01-11T20:15:37.798Z,100.00
2023-01-11T20:18:42.430Z,100.00
2023-01-11T20:21:45.202Z,100.00
2023-01-11T20:24:47.613Z,100.00
2023-01-11T20:27:50.392Z,100.00
2023-01-11T20:30:53.507Z,100.00
2023-01-11T20:33:56.902Z,100.00
2023-01-11T20:36:59.368Z,100.00
2023-01-11T20:40:02.254Z,100.00
2023-01-11T20:43:05.068Z,100.00
2023-01-11T20:46:08.024Z,100.00
2023-01-11T20:49:10.996Z,100.00
2023-01-11T20:52:14.209Z,100.00
2023-01-11T20:55:16.668Z,100.00
2023-01-11T20:58:19.346Z,100.00
2023-01-11T21:01:31.032Z,100.00
2023-01-11T21:04:33.712Z,100.00
2023-01-11T21:07:36.477Z,100.00
2023-01-11T21:10:39.120Z,100.00
2023-01-11T21:13:41.617Z,100.00
2023-01-11T21:16:44.371Z,100.00
2023-01-11T21:19:46.751Z,100.00
2023-01-11T21:22:49.367Z,100.00
2023-01-11T21:25:54.105Z,100.00
2023-01-11T21:29:01.267Z,100.00
2023-01-11T21:32:04.417Z,100.00
2023-01-11T21:35:07.269Z,100.00
2023-01-11T21:38:10.048Z,100.00
2023-01-11T21:41:14.702Z,100.00
2023-01-11T21:44:17.838Z,100.00
2023-01-11T21:47:22.192Z,100.00
2023-01-11T21:50:25.039Z,100.00
2023-01-11T21:53:32.038Z,100.00
2023-01-11T21:56:34.732Z,100.00
2023-01-11T21:59:37.303Z,100.00
2023-01-11T22:02:39.624Z,100.00
2023-01-11T22:05:42.336Z,100.00
2023-01-11T22:08:45.142Z,100.00
2023-01-11T22:11:47.956Z,100.00
2023-01-11T22:14:52.405Z,100.00
2023-01-11T22:17:55.301Z,100.00
2023-01-11T22:21:04.756Z,100.00
2023-01-11T22:24:10.432Z,100.00
2023-01-11T22:27:12.874Z,100.00
2023-01-11T22:30:18.573Z,100.00
2023-01-11T22:33:20.984Z,100.00
2023-01-11T22:36:24.977Z,100.00
2023-01-11T22:39:29.401Z,100.00
2023-01-11T22:42:33.394Z,100.00
2023-01-11T22:45:35.821Z,100.00
2023-01-11T22:48:38.686Z,100.00
2023-01-11T22:51:41.923Z,100.00
2023-01-11T22:54:44.593Z,100.00
2023-01-11T22:57:46.972Z,100.00
2023-01-11T23:00:49.852Z,100.00
2023-01-11T23:03:52.874Z,100.00
2023-01-11T23:06:55.492Z,100.00
2023-01-11T23:09:58.210Z,100.00
2023-01-11T23:13:19.772Z,100.00
2023-01-11T23:16:22.900Z,100.00
2023-01-11T23:19:25.634Z,100.00
2023-01-11T23:22:27.969Z,100.00
2023-01-11T23:25:30.569Z,100.00
2023-01-11T23:28:34.008Z,100.00
2023-01-11T23:31:37.792Z,100.00
2023-01-11T23:34:40.205Z,100.00
2023-01-11T23:37:42.875Z,100.00
2023-01-11T23:41:06.686Z,100.00
2023-01-11T23:44:10.791Z,100.00
2023-01-11T23:47:22.236Z,100.00
2023-01-11T23:50:25.089Z,100.00
2023-01-11T23:53:27.613Z,100.00
2023-01-11T23:56:30.948Z,100.00
2023-01-11T23:59:33.550Z,100.00
